createdAt,value
2023-12-09T00:00:59.865Z,26.40
2023-12-09T00:03:29.282Z,26.40
2023-12-09T00:05:57.767Z,26.40
2023-12-09T00:08:25.561Z,26.40
2023-12-09T00:10:53.650Z,26.40
2023-12-09T00:13:21.804Z,26.40
2023-12-09T00:15:49.963Z,26.40
2023-12-09T00:18:18.182Z,26.40
2023-12-09T00:20:47.768Z,26.40
2023-12-09T00:23:15.982Z,26.40
2023-12-09T00:25:44.346Z,26.30
2023-12-09T00:28:12.487Z,26.30
2023-12-09T00:30:40.389Z,26.30
2023-12-09T00:33:08.644Z,26.30
2023-12-09T00:35:36.419Z,26.30
2023-12-09T00:38:05.601Z,26.30
2023-12-09T00:40:33.469Z,26.30
2023-12-09T00:43:01.236Z,26.30
2023-12-09T00:45:29.503Z,26.30
2023-12-09T00:47:58.024Z,26.30
2023-12-09T00:50:25.927Z,26.20
2023-12-09T00:52:53.810Z,26.30
2023-12-09T00:55:22.965Z,26.30
2023-12-09T00:57:50.777Z,26.20
2023-12-09T01:00:19.717Z,26.20
2023-12-09T01:02:47.595Z,26.20
2023-12-09T01:05:15.425Z,26.20
2023-12-09T01:07:43.797Z,26.20
2023-12-09T01:10:11.845Z,26.20
2023-12-09T01:12:41.173Z,26.20
2023-12-09T01:15:09.875Z,26.20
2023-12-09T01:17:37.730Z,26.20
2023-12-09T01:20:07.005Z,26.20
2023-12-09T01:22:34.782Z,26.20
2023-12-09T01:25:02.862Z,26.20
2023-12-09T01:27:31.003Z,26.20
2023-12-09T01:30:00.568Z,26.10
2023-12-09T01:32:28.920Z,26.10
2023-12-09T01:34:57.835Z,26.10
2023-12-09T01:37:25.702Z,26.10
2023-12-09T01:39:53.573Z,26.10
2023-12-09T01:42:21.506Z,26.10
2023-12-09T01:44:49.375Z,26.10
2023-12-09T01:47:18.730Z,26.10
2023-12-09T01:49:46.889Z,26.10
2023-12-09T01:52:15.494Z,26.00
2023-12-09T01:54:43.468Z,26.00
2023-12-09T01:57:12.436Z,26.00
2023-12-09T01:59:40.272Z,26.00
2023-12-09T02:02:09.423Z,26.00
2023-12-09T02:04:38.657Z,26.00
2023-12-09T02:07:06.490Z,26.00
2023-12-09T02:09:35.043Z,26.00
2023-12-09T02:12:08.099Z,26.00
2023-12-09T02:14:40.965Z,26.00
2023-12-09T02:17:15.049Z,25.90
2023-12-09T02:19:44.994Z,25.90
2023-12-09T02:22:12.843Z,25.90
2023-12-09T02:24:42.278Z,25.90
2023-12-09T02:27:13.580Z,25.90
2023-12-09T02:29:49.152Z,25.90
2023-12-09T02:32:19.766Z,25.90
2023-12-09T02:34:50.116Z,25.90
2023-12-09T02:37:18.959Z,25.90
2023-12-09T02:39:48.634Z,25.80
2023-12-09T02:42:17.151Z,25.90
2023-12-09T02:44:45.514Z,25.80
2023-12-09T02:47:15.089Z,25.80
2023-12-09T02:49:43.677Z,25.80
2023-12-09T02:52:11.936Z,25.80
2023-12-09T02:54:39.755Z,25.80
2023-12-09T02:57:09.144Z,25.80
2023-12-09T02:59:36.927Z,25.80
2023-12-09T03:02:04.993Z,25.80
2023-12-09T03:04:33.304Z,25.80
2023-12-09T03:07:01.091Z,25.80
2023-12-09T03:09:29.250Z,25.70
2023-12-09T03:11:57.112Z,25.70
2023-12-09T03:14:26.279Z,25.70
2023-12-09T03:16:54.039Z,25.70
2023-12-09T03:19:22.206Z,25.70
2023-12-09T03:21:50.121Z,25.70
2023-12-09T03:24:18.095Z,25.70
2023-12-09T03:26:45.971Z,25.70
2023-12-09T03:29:13.836Z,25.70
2023-12-09T03:31:43.416Z,25.70
2023-12-09T03:34:11.499Z,25.70
2023-12-09T03:36:39.740Z,25.60
2023-12-09T03:39:08.541Z,25.60
2023-12-09T03:41:36.405Z,25.60
2023-12-09T03:44:04.821Z,25.60
2023-12-09T03:46:32.572Z,25.60
2023-12-09T03:49:01.880Z,25.60
2023-12-09T03:51:29.803Z,25.60
2023-12-09T03:53:57.949Z,25.60
2023-12-09T03:56:25.881Z,25.60
2023-12-09T03:58:54.338Z,25.60
2023-12-09T04:01:24.026Z,25.60
2023-12-09T04:03:51.831Z,25.60
2023-12-09T04:06:23.315Z,25.60
2023-12-09T04:08:51.077Z,25.50
2023-12-09T04:11:18.825Z,25.50
2023-12-09T04:13:46.739Z,25.50
2023-12-09T04:16:14.536Z,25.50
2023-12-09T04:18:42.526Z,25.50
2023-12-09T04:21:10.380Z,25.50
2023-12-09T04:23:39.541Z,25.50
2023-12-09T04:26:07.440Z,25.50
2023-12-09T04:28:35.322Z,25.50
2023-12-09T04:31:03.056Z,25.50
2023-12-09T04:33:31.206Z,25.50
2023-12-09T04:35:59.090Z,25.50
2023-12-09T04:38:26.927Z,25.40
2023-12-09T04:40:56.672Z,25.40
2023-12-09T04:43:24.473Z,25.40
2023-12-09T04:45:53.434Z,25.40
2023-12-09T04:48:21.629Z,25.40
2023-12-09T04:50:49.793Z,25.40
2023-12-09T04:53:17.681Z,25.40
2023-12-09T04:55:45.624Z,25.40
2023-12-09T04:58:15.898Z,25.40
2023-12-09T05:00:45.376Z,25.40
2023-12-09T05:03:13.240Z,25.40
2023-12-09T05:05:41.119Z,25.40
2023-12-09T05:08:09.391Z,25.30
2023-12-09T05:10:37.360Z,25.30
2023-12-09T05:13:05.145Z,25.30
2023-12-09T05:15:34.759Z,25.30
2023-12-09T05:18:03.038Z,25.30
2023-12-09T05:20:31.371Z,25.30
2023-12-09T05:22:59.110Z,25.30
2023-12-09T05:25:26.908Z,25.30
2023-12-09T05:27:54.742Z,25.30
2023-12-09T05:30:23.829Z,25.30
2023-12-09T05:32:53.280Z,25.30
2023-12-09T05:35:21.250Z,25.30
2023-12-09T05:37:49.119Z,25.30
2023-12-09T05:40:17.260Z,25.30
2023-12-09T05:42:45.090Z,25.30
2023-12-09T05:45:13.407Z,25.30
2023-12-09T05:47:41.309Z,25.30
2023-12-09T05:50:11.935Z,25.30
2023-12-09T05:52:39.739Z,25.30
2023-12-09T05:55:08.107Z,25.30
2023-12-09T05:57:35.962Z,25.30
2023-12-09T06:00:04.513Z,25.30
2023-12-09T06:02:32.731Z,25.30
2023-12-09T06:05:00.508Z,25.30
2023-12-09T06:07:29.789Z,25.30
2023-12-09T06:09:57.930Z,25.30
2023-12-09T06:12:26.091Z,25.30
2023-12-09T06:14:54.614Z,25.30
2023-12-09T06:17:22.629Z,25.30
2023-12-09T06:19:50.760Z,25.30
2023-12-09T06:22:18.573Z,25.30
2023-12-09T06:24:47.747Z,25.30
2023-12-09T06:27:15.959Z,25.30
2023-12-09T06:29:46.119Z,25.30
2023-12-09T06:32:15.000Z,25.30
2023-12-09T06:34:42.919Z,25.30
2023-12-09T06:37:11.061Z,25.30
2023-12-09T06:39:38.875Z,25.30
2023-12-09T06:42:08.183Z,25.30
2023-12-09T06:44:35.990Z,25.30
2023-12-09T06:47:03.951Z,25.40
2023-12-09T06:49:32.264Z,25.40
2023-12-09T06:52:00.791Z,25.30
2023-12-09T06:54:28.635Z,25.40
2023-12-09T06:56:57.994Z,25.40
2023-12-09T06:59:28.263Z,25.40
2023-12-09T07:01:58.411Z,25.30
2023-12-09T07:04:26.761Z,25.40
2023-12-09T07:06:54.646Z,25.40
2023-12-09T07:09:22.520Z,25.40
2023-12-09T07:12:01.452Z,25.40
2023-12-09T07:14:32.473Z,25.40
2023-12-09T07:17:00.263Z,25.40
2023-12-09T07:19:28.090Z,25.40
2023-12-09T07:21:56.178Z,25.40
2023-12-09T07:24:24.485Z,25.40
2023-12-09T07:26:52.316Z,25.40
2023-12-09T07:29:20.904Z,25.40
2023-12-09T07:31:50.348Z,25.40
2023-12-09T07:34:20.063Z,25.40
2023-12-09T07:36:48.290Z,25.40
2023-12-09T07:39:16.060Z,25.50
2023-12-09T07:41:44.994Z,25.50
2023-12-09T07:44:12.744Z,25.50
2023-12-09T07:46:40.623Z,25.50
2023-12-09T07:49:10.549Z,25.50
2023-12-09T07:51:38.497Z,25.50
2023-12-09T07:54:09.225Z,25.50
2023-12-09T07:56:38.255Z,25.50
2023-12-09T07:59:06.056Z,25.50
2023-12-09T08:01:34.095Z,25.50
2023-12-09T08:04:02.695Z,25.50
2023-12-09T08:06:32.287Z,25.50
2023-12-09T08:09:00.307Z,25.50
2023-12-09T08:11:28.209Z,25.50
2023-12-09T08:13:56.048Z,25.50
2023-12-09T08:16:23.869Z,25.50
2023-12-09T08:18:51.830Z,25.60
2023-12-09T08:21:19.826Z,25.60
2023-12-09T08:23:49.147Z,25.50
2023-12-09T08:26:20.362Z,25.50
2023-12-09T08:28:48.412Z,25.60
2023-12-09T08:31:16.301Z,25.60
2023-12-09T08:33:44.962Z,25.60
2023-12-09T08:36:13.209Z,25.60
2023-12-09T08:38:41.370Z,25.60
2023-12-09T08:41:10.770Z,25.60
2023-12-09T08:43:38.546Z,25.60
2023-12-09T08:46:06.643Z,25.60
2023-12-09T08:48:34.807Z,25.60
2023-12-09T08:51:02.928Z,25.60
2023-12-09T08:53:30.884Z,25.70
2023-12-09T08:55:58.903Z,25.70
2023-12-09T08:58:28.157Z,25.70
2023-12-09T09:00:56.218Z,25.70
2023-12-09T09:03:24.424Z,25.70
2023-12-09T09:05:53.188Z,25.70
2023-12-09T09:08:21.198Z,25.80
2023-12-09T09:10:49.849Z,25.80
2023-12-09T09:13:17.899Z,25.80
2023-12-09T09:15:47.340Z,25.80
2023-12-09T09:18:15.754Z,25.80
2023-12-09T09:20:44.162Z,25.80
2023-12-09T09:23:12.656Z,25.80
2023-12-09T09:25:40.519Z,25.80
2023-12-09T09:28:08.569Z,25.80
2023-12-09T09:30:36.624Z,25.80
2023-12-09T09:33:07.584Z,25.80
2023-12-09T09:35:35.780Z,25.80
2023-12-09T09:38:03.582Z,25.80
2023-12-09T09:40:31.410Z,25.80
2023-12-09T09:43:02.125Z,25.80
2023-12-09T09:45:32.317Z,25.80
2023-12-09T09:48:07.179Z,25.80
2023-12-09T09:50:40.720Z,25.80
2023-12-09T09:53:10.681Z,25.80
2023-12-09T09:55:42.736Z,25.80
2023-12-09T09:58:10.853Z,25.80
2023-12-09T10:00:40.079Z,25.80
2023-12-09T10:03:10.004Z,25.80
2023-12-09T10:05:38.388Z,25.80
2023-12-09T10:08:06.584Z,25.80
2023-12-09T10:10:35.803Z,25.70
2023-12-09T10:13:03.683Z,25.70
2023-12-09T10:15:33.161Z,25.70
2023-12-09T10:18:04.879Z,25.70
2023-12-09T10:20:37.135Z,25.70
2023-12-09T10:23:05.457Z,25.70
2023-12-09T10:25:33.736Z,25.70
2023-12-09T10:28:11.917Z,25.70
2023-12-09T10:30:40.233Z,25.70
2023-12-09T10:33:08.383Z,25.70
2023-12-09T10:35:37.978Z,25.70
2023-12-09T10:38:06.777Z,25.70
2023-12-09T10:40:35.116Z,25.60
2023-12-09T10:43:04.253Z,25.60
2023-12-09T10:45:32.738Z,25.60
2023-12-09T10:48:01.151Z,25.60
2023-12-09T10:50:29.630Z,25.60
2023-12-09T10:52:59.169Z,25.60
2023-12-09T10:55:27.032Z,25.60
2023-12-09T10:57:56.296Z,25.60
2023-12-09T11:00:26.497Z,25.60
2023-12-09T11:02:55.113Z,25.50
2023-12-09T11:05:23.321Z,25.50
2023-12-09T11:07:52.254Z,25.50
2023-12-09T11:10:22.457Z,25.50
2023-12-09T11:12:50.510Z,25.50
2023-12-09T11:15:24.559Z,25.50
2023-12-09T11:17:55.125Z,25.50
2023-12-09T11:20:24.074Z,25.50
2023-12-09T11:22:51.931Z,25.50
2023-12-09T11:25:27.103Z,25.50
2023-12-09T11:27:55.991Z,25.40
2023-12-09T11:30:31.877Z,25.40
2023-12-09T11:33:00.239Z,25.40
2023-12-09T11:35:29.202Z,25.40
2023-12-09T11:37:59.795Z,25.40
2023-12-09T11:40:32.132Z,25.40
2023-12-09T11:43:01.214Z,25.40
2023-12-09T11:45:29.777Z,25.40
2023-12-09T11:47:58.468Z,25.40
2023-12-09T11:50:28.908Z,25.40
2023-12-09T11:52:56.810Z,25.40
2023-12-09T11:55:24.795Z,25.30
2023-12-09T11:57:54.535Z,25.30
2023-12-09T12:00:22.863Z,25.30
2023-12-09T12:02:50.940Z,25.30
2023-12-09T12:05:19.061Z,25.30
2023-12-09T12:07:47.145Z,25.30
2023-12-09T12:10:16.308Z,25.30
2023-12-09T12:12:45.467Z,25.30
2023-12-09T12:15:15.339Z,25.30
2023-12-09T12:17:43.889Z,25.20
2023-12-09T12:20:14.053Z,25.30
2023-12-09T12:22:43.358Z,25.20
2023-12-09T12:25:11.844Z,25.20
2023-12-09T12:27:44.560Z,25.20
2023-12-09T12:30:15.658Z,25.20
2023-12-09T12:32:44.409Z,25.20
2023-12-09T12:35:13.040Z,25.20
2023-12-09T12:37:41.912Z,25.20
2023-12-09T12:40:11.475Z,25.20
2023-12-09T12:42:39.645Z,25.20
2023-12-09T12:45:17.778Z,25.20
2023-12-09T12:47:47.288Z,25.20
2023-12-09T12:50:15.924Z,25.20
2023-12-09T12:52:45.736Z,25.10
2023-12-09T12:55:13.872Z,25.10
2023-12-09T12:57:41.955Z,25.10
2023-12-09T13:00:13.152Z,25.10
2023-12-09T13:02:41.191Z,25.10
2023-12-09T13:05:11.049Z,25.10
2023-12-09T13:07:40.046Z,25.10
2023-12-09T13:10:09.253Z,25.10
2023-12-09T13:12:37.445Z,25.10
2023-12-09T13:15:06.284Z,25.10
2023-12-09T13:17:34.253Z,25.10
2023-12-09T13:20:02.134Z,25.10
2023-12-09T13:22:31.684Z,25.10
2023-12-09T13:24:59.896Z,25.10
2023-12-09T13:27:27.767Z,25.10
2023-12-09T13:29:55.845Z,25.00
2023-12-09T13:32:23.700Z,25.00
2023-12-09T13:34:51.741Z,25.00
2023-12-09T13:37:19.725Z,25.00
2023-12-09T13:39:49.452Z,25.00
2023-12-09T13:42:17.401Z,25.00
2023-12-09T13:44:45.379Z,25.00
2023-12-09T13:47:13.534Z,25.00
2023-12-09T13:49:43.023Z,25.00
2023-12-09T13:52:11.339Z,25.00
2023-12-09T13:54:39.996Z,25.00
2023-12-09T13:57:10.791Z,25.00
2023-12-09T13:59:39.130Z,24.90
2023-12-09T14:02:08.877Z,24.90
2023-12-09T14:04:37.542Z,24.90
2023-12-09T14:07:06.158Z,24.90
2023-12-09T14:09:34.311Z,24.90
2023-12-09T14:12:02.497Z,24.90
2023-12-09T14:14:32.695Z,24.90
2023-12-09T14:17:00.924Z,24.90
2023-12-09T14:19:29.358Z,24.90
2023-12-09T14:21:57.613Z,24.90
2023-12-09T14:24:25.972Z,24.80
2023-12-09T14:26:54.070Z,24.80
2023-12-09T14:29:22.406Z,24.80
2023-12-09T14:31:51.712Z,24.80
2023-12-09T14:34:19.810Z,24.80
2023-12-09T14:36:47.870Z,24.80
2023-12-09T14:39:17.308Z,24.80
2023-12-09T14:41:45.503Z,24.80
2023-12-09T14:44:13.252Z,24.80
2023-12-09T14:46:41.100Z,24.90
2023-12-09T14:49:10.465Z,24.90
2023-12-09T14:51:43.513Z,24.90
2023-12-09T14:54:16.306Z,24.90
2023-12-09T14:56:46.727Z,24.90
2023-12-09T14:59:14.993Z,24.90
2023-12-09T15:01:43.092Z,24.90
2023-12-09T15:04:12.825Z,24.90
2023-12-09T15:06:40.882Z,25.00
2023-12-09T15:09:11.514Z,25.00
2023-12-09T15:11:39.438Z,25.00
2023-12-09T15:14:07.628Z,25.00
2023-12-09T15:16:36.406Z,25.00
2023-12-09T15:19:04.928Z,25.00
2023-12-09T15:21:34.418Z,25.10
2023-12-09T15:24:02.644Z,25.10
2023-12-09T15:26:30.597Z,25.10
2023-12-09T15:28:59.484Z,25.10
2023-12-09T15:31:27.640Z,25.10
2023-12-09T15:33:55.689Z,25.10
2023-12-09T15:36:24.209Z,25.10
2023-12-09T15:38:53.516Z,25.20
2023-12-09T15:41:21.460Z,25.20
2023-12-09T15:43:49.422Z,25.20
2023-12-09T15:46:17.445Z,25.20
2023-12-09T15:48:47.003Z,25.20
2023-12-09T15:51:15.136Z,25.20
2023-12-09T15:53:43.237Z,25.20
2023-12-09T15:56:13.843Z,25.20
2023-12-09T15:58:41.857Z,25.20
2023-12-09T16:01:09.791Z,25.20
2023-12-09T16:03:38.095Z,25.20
2023-12-09T16:06:07.933Z,25.20
2023-12-09T16:08:35.923Z,25.20
2023-12-09T16:11:04.592Z,25.20
2023-12-09T16:13:34.920Z,25.30
2023-12-09T16:16:02.774Z,25.20
2023-12-09T16:18:31.860Z,25.30
2023-12-09T16:21:02.055Z,25.30
2023-12-09T16:23:31.191Z,25.30
2023-12-09T16:26:01.158Z,25.30
2023-12-09T16:28:29.193Z,25.30
2023-12-09T16:30:58.485Z,25.30
2023-12-09T16:33:26.498Z,25.30
2023-12-09T16:35:54.506Z,25.30
2023-12-09T16:38:22.514Z,25.30
2023-12-09T16:40:50.439Z,25.30
2023-12-09T16:43:18.414Z,25.40
2023-12-09T16:45:46.611Z,25.40
2023-12-09T16:48:16.320Z,25.40
2023-12-09T16:50:44.308Z,25.40
2023-12-09T16:53:12.237Z,25.40
2023-12-09T16:55:40.126Z,25.40
2023-12-09T16:58:08.492Z,25.40
2023-12-09T17:00:36.689Z,25.50
2023-12-09T17:03:05.065Z,25.50
2023-12-09T17:05:34.441Z,25.50
2023-12-09T17:08:02.390Z,25.50
2023-12-09T17:10:30.225Z,25.50
2023-12-09T17:12:58.290Z,25.50
2023-12-09T17:15:26.280Z,25.50
2023-12-09T17:17:54.342Z,25.60
2023-12-09T17:20:22.466Z,25.60
2023-12-09T17:22:52.230Z,25.60
2023-12-09T17:25:20.744Z,25.60
2023-12-09T17:27:51.742Z,25.60
2023-12-09T17:30:19.950Z,25.70
2023-12-09T17:32:48.048Z,25.70
2023-12-09T17:35:16.054Z,25.70
2023-12-09T17:37:44.557Z,25.70
2023-12-09T17:40:15.645Z,25.70
2023-12-09T17:42:43.765Z,25.70
2023-12-09T17:45:12.056Z,25.70
2023-12-09T17:47:39.888Z,25.80
2023-12-09T17:50:08.254Z,25.80
2023-12-09T17:52:37.693Z,25.80
2023-12-09T17:55:06.607Z,25.80
2023-12-09T17:57:36.112Z,25.90
2023-12-09T18:00:03.807Z,25.90
2023-12-09T18:02:31.738Z,25.90
2023-12-09T18:04:59.969Z,25.90
2023-12-09T18:07:28.236Z,25.90
2023-12-09T18:09:56.448Z,25.90
2023-12-09T18:12:24.666Z,26.00
2023-12-09T18:14:53.970Z,26.00
2023-12-09T18:17:22.011Z,26.00
2023-12-09T18:19:50.293Z,26.00
2023-12-09T18:22:21.505Z,26.00
2023-12-09T18:24:50.342Z,26.00
2023-12-09T18:27:18.398Z,26.10
2023-12-09T18:29:46.623Z,26.10
2023-12-09T18:32:16.903Z,26.10
2023-12-09T18:34:45.066Z,26.10
2023-12-09T18:37:13.411Z,26.10
2023-12-09T18:39:41.630Z,26.10
2023-12-09T18:42:10.510Z,26.10
2023-12-09T18:44:38.442Z,26.10
2023-12-09T18:47:06.724Z,26.20
2023-12-09T18:49:36.075Z,26.20
2023-12-09T18:52:04.517Z,26.20
2023-12-09T18:54:34.993Z,26.20
2023-12-09T18:57:03.322Z,26.20
2023-12-09T18:59:31.368Z,26.20
2023-12-09T19:02:09.041Z,26.20
2023-12-09T19:04:45.174Z,26.20
2023-12-09T19:07:13.521Z,26.20
2023-12-09T19:09:43.245Z,26.30
2023-12-09T19:12:12.343Z,26.30
2023-12-09T19:14:40.244Z,26.30
2023-12-09T19:17:08.082Z,26.30
2023-12-09T19:19:36.085Z,26.30
2023-12-09T19:22:06.185Z,26.30
2023-12-09T19:24:34.211Z,26.30
2023-12-09T19:27:02.674Z,26.30
2023-12-09T19:29:30.505Z,26.40
2023-12-09T19:31:58.511Z,26.40
2023-12-09T19:34:26.750Z,26.40
2023-12-09T19:36:54.895Z,26.40
2023-12-09T19:39:24.294Z,26.40
2023-12-09T19:42:35.130Z,26.40
2023-12-09T19:45:06.255Z,26.40
2023-12-09T19:47:35.066Z,26.50
2023-12-09T19:50:03.034Z,26.50
2023-12-09T19:52:31.292Z,26.50
2023-12-09T19:55:01.038Z,26.50
2023-12-09T19:57:29.206Z,26.50
2023-12-09T19:59:57.001Z,26.50
2023-12-09T20:02:25.030Z,26.50
2023-12-09T20:04:53.137Z,26.60
2023-12-09T20:07:21.138Z,26.60
2023-12-09T20:09:48.903Z,26.60
2023-12-09T20:12:18.418Z,26.60
2023-12-09T20:14:46.755Z,26.60
2023-12-09T20:17:15.168Z,26.60
2023-12-09T20:19:43.007Z,26.60
2023-12-09T20:22:12.928Z,26.60
2023-12-09T20:24:41.492Z,26.60
2023-12-09T20:27:09.379Z,26.70
2023-12-09T20:29:38.832Z,26.70
2023-12-09T20:32:07.726Z,26.70
2023-12-09T20:34:35.564Z,26.70
2023-12-09T20:37:03.552Z,26.70
2023-12-09T20:39:31.578Z,26.70
2023-12-09T20:41:59.444Z,26.70
2023-12-09T20:44:27.429Z,26.70
2023-12-09T20:46:56.864Z,26.70
2023-12-09T20:49:24.754Z,26.70
2023-12-09T20:51:53.330Z,26.70
2023-12-09T20:54:21.203Z,26.70
2023-12-09T20:56:49.227Z,26.80
2023-12-09T20:59:16.985Z,26.80
2023-12-09T21:01:46.034Z,26.80
2023-12-09T21:04:15.502Z,26.80
2023-12-09T21:06:43.813Z,26.80
2023-12-09T21:09:11.796Z,26.80
2023-12-09T21:11:39.842Z,26.80
2023-12-09T21:14:08.331Z,26.80
2023-12-09T21:16:37.272Z,26.80
2023-12-09T21:19:05.481Z,26.80
2023-12-09T21:21:35.164Z,26.90
2023-12-09T21:24:03.478Z,26.90
2023-12-09T21:26:31.374Z,26.90
2023-12-09T21:28:59.192Z,26.90
2023-12-09T21:31:27.666Z,26.90
2023-12-09T21:33:56.060Z,26.90
2023-12-09T21:36:24.242Z,26.90
2023-12-09T21:38:53.516Z,26.90
2023-12-09T21:41:22.631Z,26.90
2023-12-09T21:43:51.710Z,26.90
2023-12-09T21:46:22.840Z,26.90
2023-12-09T21:48:52.055Z,26.90
2023-12-09T21:51:21.815Z,26.90
2023-12-09T21:53:50.123Z,26.90
2023-12-09T21:56:23.648Z,26.90
2023-12-09T21:58:52.681Z,26.90
2023-12-09T22:01:21.746Z,26.90
2023-12-09T22:03:50.493Z,26.90
2023-12-09T22:06:18.387Z,26.90
2023-12-09T22:08:46.413Z,26.80
2023-12-09T22:11:14.780Z,26.80
2023-12-09T22:13:44.114Z,26.80
2023-12-09T22:16:12.289Z,26.80
2023-12-09T22:18:40.302Z,26.80
2023-12-09T22:21:08.526Z,26.80
2023-12-09T22:23:36.446Z,26.80
2023-12-09T22:26:04.283Z,26.80
2023-12-09T22:28:33.111Z,26.80
2023-12-09T22:31:04.020Z,26.80
2023-12-09T22:33:32.220Z,26.80
2023-12-09T22:36:00.309Z,26.80
2023-12-09T22:38:28.592Z,26.80
2023-12-09T22:40:56.492Z,26.80
2023-12-09T22:43:24.371Z,26.80
2023-12-09T22:45:52.569Z,26.70
2023-12-09T22:48:22.068Z,26.80
2023-12-09T22:50:51.967Z,26.80
2023-12-09T22:53:21.126Z,26.70
2023-12-09T22:55:49.352Z,26.70
2023-12-09T22:58:17.213Z,26.70
2023-12-09T23:00:45.385Z,26.70
2023-12-09T23:03:13.397Z,26.70
2023-12-09T23:05:42.810Z,26.70
2023-12-09T23:08:10.618Z,26.70
2023-12-09T23:10:38.424Z,26.70
2023-12-09T23:13:06.924Z,26.70
2023-12-09T23:15:34.815Z,26.70
2023-12-09T23:18:02.827Z,26.70
2023-12-09T23:20:30.728Z,26.70
2023-12-09T23:22:59.912Z,26.70
2023-12-09T23:25:28.104Z,26.60
2023-12-09T23:27:56.953Z,26.60
2023-12-09T23:30:24.783Z,26.60
2023-12-09T23:32:52.698Z,26.60
2023-12-09T23:35:20.638Z,26.60
2023-12-09T23:37:48.795Z,26.60
2023-12-09T23:40:18.461Z,26.60
2023-12-09T23:42:47.087Z,26.60
2023-12-09T23:45:15.147Z,26.60
2023-12-09T23:47:44.168Z,26.60
2023-12-09T23:50:12.398Z,26.60
2023-12-09T23:52:40.277Z,26.50
2023-12-09T23:55:08.689Z,26.50
2023-12-09T23:57:38.222Z,26.50
